Metar Aviation Weather Data KTRI

45°F Temp
36°F Dewpoint
% Humidity
Temperature
3 MPH
5 KM/H
3 KTS
10°
Due North

Wind Speed
Mostly Scattered
Clouds
Pressure 1024.72 (hPa) - 30.26 (in)
Visibility 9.9 (mi) - 16.0 (km)

Current Conditions
KTRI
Metar :KTRI 302353Z 01003KT 10SM SCT037 07/02 A3026 RMK AO2 SLP238 T00670017 10122 20067 53022
Fri 30th October 19:53 pm

  Metar Aviation API Data Provided by https://www.checkwx.com/ PHP scripts by weather34.com ©2020